createdAt,value
2022-10-19T00:01:39.976Z,1.02
2022-10-19T00:04:08.762Z,1.20
2022-10-19T00:06:36.382Z,0.73
2022-10-19T00:09:06.068Z,1.42
2022-10-19T00:11:33.019Z,1.33
2022-10-19T00:14:00.199Z,1.13
2022-10-19T00:16:28.533Z,2.08
2022-10-19T00:19:01.872Z,0.73
2022-10-19T00:21:28.688Z,0.68
2022-10-19T00:23:55.496Z,0.47
2022-10-19T00:26:22.237Z,0.38
2022-10-19T00:28:48.975Z,0.93
2022-10-19T00:31:17.001Z,0.73
2022-10-19T00:33:46.495Z,0.47
2022-10-19T00:36:18.524Z,0.88
2022-10-19T00:38:45.209Z,0.40
2022-10-19T00:41:11.917Z,0.63
2022-10-19T00:44:13.608Z,0.85
2022-10-19T00:46:42.299Z,0.38
2022-10-19T00:49:23.630Z,0.85
2022-10-19T00:51:58.305Z,1.58
2022-10-19T00:54:25.362Z,0.43
2022-10-19T00:56:53.374Z,1.17
2022-10-19T00:59:23.311Z,0.73
2022-10-19T01:01:50.023Z,0.73
2022-10-19T01:04:16.859Z,2.83
2022-10-19T01:06:43.570Z,1.70
2022-10-19T01:09:10.356Z,1.35
2022-10-19T01:11:57.511Z,2.67
2022-10-19T01:14:29.026Z,1.80
2022-10-19T01:17:14.637Z,1.48
2022-10-19T01:20:12.391Z,1.40
2022-10-19T01:22:47.865Z,0.80
2022-10-19T01:25:17.575Z,1.50
2022-10-19T01:28:04.329Z,0.63
2022-10-19T01:30:45.688Z,1.42
2022-10-19T01:33:18.370Z,2.13
2022-10-19T01:35:46.760Z,1.90
2022-10-19T01:38:31.511Z,1.33
2022-10-19T01:41:32.009Z,2.55
2022-10-19T01:44:00.931Z,1.52
2022-10-19T01:46:38.109Z,2.55
2022-10-19T01:49:44.850Z,4.18
2022-10-19T01:52:13.321Z,1.35
2022-10-19T01:54:42.667Z,1.73
2022-10-19T01:57:10.309Z,2.40
2022-10-19T01:59:37.189Z,1.20
2022-10-19T02:02:04.338Z,1.63
2022-10-19T02:04:31.098Z,0.55
2022-10-19T02:06:57.759Z,0.98
2022-10-19T02:09:24.521Z,2.03
2022-10-19T02:11:57.245Z,1.17
2022-10-19T02:14:28.707Z,0.77
2022-10-19T02:16:59.837Z,1.20
2022-10-19T02:19:26.498Z,1.20
2022-10-19T02:21:53.156Z,1.90
2022-10-19T02:24:20.228Z,1.13
2022-10-19T02:26:46.899Z,1.70
2022-10-19T02:29:14.184Z,0.73
2022-10-19T02:31:40.860Z,1.13
2022-10-19T02:34:07.498Z,0.50
2022-10-19T02:36:34.183Z,1.27
2022-10-19T02:39:00.879Z,1.15
2022-10-19T02:41:55.486Z,0.35
2022-10-19T02:45:02.480Z,1.25
2022-10-19T02:47:32.265Z,1.25
2022-10-19T02:49:59.168Z,2.47
2022-10-19T02:52:25.865Z,2.50
2022-10-19T02:54:52.527Z,1.88
2022-10-19T02:57:23.326Z,1.25
2022-10-19T02:59:50.090Z,4.10
2022-10-19T03:02:17.044Z,2.65
2022-10-19T03:04:44.765Z,1.35
2022-10-19T03:07:15.011Z,2.45
2022-10-19T03:09:42.391Z,1.55
2022-10-19T03:12:09.095Z,1.23
2022-10-19T03:14:36.019Z,1.50
2022-10-19T03:17:02.965Z,3.05
2022-10-19T03:19:29.606Z,2.13
2022-10-19T03:21:56.272Z,2.17
2022-10-19T03:24:22.996Z,1.75
2022-10-19T03:26:49.638Z,1.70
2022-10-19T03:29:16.291Z,1.90
2022-10-19T03:31:43.119Z,1.50
2022-10-19T03:34:09.780Z,3.00
2022-10-19T03:36:38.607Z,2.65
2022-10-19T03:39:12.457Z,2.35
2022-10-19T03:41:39.419Z,1.80
2022-10-19T03:44:06.616Z,2.17
2022-10-19T03:46:33.965Z,1.45
2022-10-19T03:49:00.693Z,2.95
2022-10-19T03:51:28.605Z,1.50
2022-10-19T03:53:58.128Z,1.33
2022-10-19T03:56:25.445Z,1.27
2022-10-19T03:58:52.823Z,1.15
2022-10-19T04:01:25.114Z,1.75
2022-10-19T04:03:59.902Z,1.83
2022-10-19T04:06:29.470Z,0.68
2022-10-19T04:08:56.203Z,0.73
2022-10-19T04:11:24.588Z,0.50
2022-10-19T04:13:51.913Z,1.17
2022-10-19T04:16:18.857Z,1.75
2022-10-19T04:18:45.672Z,1.45
2022-10-19T04:21:25.805Z,1.58
2022-10-19T04:23:53.693Z,0.82
2022-10-19T04:26:20.623Z,0.82
2022-10-19T04:28:47.513Z,2.60
2022-10-19T04:31:14.295Z,1.05
2022-10-19T04:33:41.142Z,0.70
2022-10-19T04:36:09.666Z,1.60
2022-10-19T04:38:36.666Z,2.28
2022-10-19T04:41:11.115Z,0.60
2022-10-19T04:43:37.954Z,0.77
2022-10-19T04:46:09.544Z,1.80
2022-10-19T04:48:37.087Z,2.35
2022-10-19T04:51:04.247Z,0.85
2022-10-19T04:53:31.158Z,1.75
2022-10-19T04:55:58.044Z,1.33
2022-10-19T04:58:24.777Z,3.03
2022-10-19T05:00:51.612Z,1.23
2022-10-19T05:03:18.471Z,1.30
2022-10-19T05:05:45.123Z,1.02
2022-10-19T05:08:11.830Z,0.90
2022-10-19T05:10:38.527Z,2.45
2022-10-19T05:13:05.195Z,2.33
2022-10-19T05:15:31.842Z,1.63
2022-10-19T05:17:58.488Z,3.60
2022-10-19T05:20:25.207Z,2.88
2022-10-19T05:22:51.875Z,2.53
2022-10-19T05:25:18.606Z,3.10
2022-10-19T05:27:45.824Z,2.47
2022-10-19T05:30:14.378Z,2.78
2022-10-19T05:32:41.094Z,3.47
2022-10-19T05:35:08.171Z,3.65
2022-10-19T05:37:35.259Z,2.72
2022-10-19T05:40:02.243Z,2.22
2022-10-19T05:42:28.883Z,2.20
2022-10-19T05:44:55.644Z,2.50
2022-10-19T05:47:24.356Z,3.08
2022-10-19T05:49:51.832Z,2.63
2022-10-19T05:52:18.611Z,2.17
2022-10-19T05:54:45.319Z,2.72
2022-10-19T05:57:12.063Z,1.67
2022-10-19T05:59:39.131Z,2.45
2022-10-19T06:02:06.042Z,3.15
2022-10-19T06:04:33.966Z,4.30
2022-10-19T06:07:01.050Z,3.60
2022-10-19T06:09:27.961Z,3.28
2022-10-19T06:11:54.591Z,3.72
2022-10-19T06:14:21.273Z,3.15
2022-10-19T06:16:47.953Z,2.85
2022-10-19T06:19:14.643Z,4.43
2022-10-19T06:21:43.443Z,4.45
2022-10-19T06:24:13.161Z,2.72
2022-10-19T06:26:39.913Z,4.20
2022-10-19T06:29:06.638Z,5.95
2022-10-19T06:31:34.660Z,2.92
2022-10-19T06:34:01.362Z,3.60
2022-10-19T06:36:29.958Z,3.83
2022-10-19T06:38:56.728Z,2.72
2022-10-19T06:41:23.679Z,5.80
2022-10-19T06:43:54.139Z,2.97
2022-10-19T06:46:23.172Z,4.78
2022-10-19T06:48:55.835Z,2.33
2022-10-19T06:51:22.806Z,2.88
2022-10-19T06:53:54.215Z,5.07
2022-10-19T06:56:24.654Z,4.35
2022-10-19T06:58:51.577Z,2.38
2022-10-19T07:01:18.453Z,5.32
2022-10-19T07:03:45.426Z,3.97
2022-10-19T07:06:12.784Z,5.15
2022-10-19T07:08:40.016Z,4.28
2022-10-19T07:11:11.376Z,4.38
2022-10-19T07:13:38.255Z,3.13
2022-10-19T07:16:14.568Z,5.20
2022-10-19T07:18:44.483Z,3.22
2022-10-19T07:21:13.435Z,5.53
2022-10-19T07:23:40.993Z,4.88
2022-10-19T07:26:12.522Z,4.90
2022-10-19T07:28:40.221Z,4.75
2022-10-19T07:31:12.081Z,4.03
2022-10-19T07:33:38.922Z,3.50
2022-10-19T07:36:08.102Z,5.78
2022-10-19T07:38:35.299Z,4.88
2022-10-19T07:41:09.476Z,4.88
2022-10-19T07:43:36.391Z,2.97
2022-10-19T07:46:05.248Z,5.47
2022-10-19T07:48:32.370Z,4.20
2022-10-19T07:51:00.946Z,4.25
2022-10-19T07:53:27.687Z,5.20
2022-10-19T07:55:54.470Z,4.47
2022-10-19T07:58:21.232Z,6.28
2022-10-19T08:00:48.704Z,5.57
2022-10-19T08:04:13.748Z,2.95
2022-10-19T08:06:04.999Z,3.75
2022-10-19T08:08:31.837Z,5.55
2022-10-19T08:10:58.671Z,4.00
2022-10-19T08:13:25.393Z,5.05
2022-10-19T08:15:52.553Z,4.95
2022-10-19T08:18:21.572Z,5.03
2022-10-19T08:20:49.911Z,4.10
2022-10-19T08:23:16.652Z,3.88
2022-10-19T08:25:43.812Z,2.78
2022-10-19T08:28:10.548Z,3.60
2022-10-19T08:30:37.771Z,5.15
2022-10-19T08:33:07.351Z,2.50
2022-10-19T08:35:35.260Z,2.85
2022-10-19T08:38:02.886Z,5.28
2022-10-19T08:40:30.355Z,5.65
2022-10-19T08:43:10.181Z,5.82
2022-10-19T08:45:44.483Z,5.85
2022-10-19T08:48:32.940Z,6.13
2022-10-19T08:51:00.073Z,6.32
2022-10-19T08:53:38.719Z,3.13
2022-10-19T08:56:50.043Z,7.53
2022-10-19T08:59:18.187Z,5.80
2022-10-19T09:01:52.677Z,6.97
2022-10-19T09:04:32.185Z,4.38
2022-10-19T09:07:19.977Z,3.70
2022-10-19T09:09:53.644Z,6.03
2022-10-19T09:12:34.180Z,3.17
2022-10-19T09:15:11.449Z,2.88
2022-10-19T09:17:38.306Z,3.10
2022-10-19T09:20:22.542Z,3.67
2022-10-19T09:22:58.826Z,4.50
2022-10-19T09:25:26.152Z,5.88
2022-10-19T09:28:19.131Z,5.72
2022-10-19T09:30:45.771Z,4.25
2022-10-19T09:33:24.732Z,6.25
2022-10-19T09:35:51.793Z,5.85
2022-10-19T09:38:19.873Z,4.90
2022-10-19T09:40:46.607Z,6.78
2022-10-19T09:43:20.823Z,6.80
2022-10-19T09:46:19.831Z,4.72
2022-10-19T09:48:51.333Z,5.43
2022-10-19T09:51:18.321Z,2.92
2022-10-19T09:53:46.030Z,5.10
2022-10-19T09:56:24.010Z,3.90
2022-10-19T09:58:52.081Z,4.68
2022-10-19T10:01:43.120Z,5.82
2022-10-19T10:04:17.612Z,8.35
2022-10-19T10:06:46.799Z,6.75
2022-10-19T10:09:17.523Z,7.97
2022-10-19T10:11:46.145Z,6.65
2022-10-19T10:14:15.799Z,6.43
2022-10-19T10:16:42.480Z,5.78
2022-10-19T10:19:15.808Z,6.15
2022-10-19T10:21:50.958Z,8.05
2022-10-19T10:24:18.875Z,5.95
2022-10-19T10:26:53.871Z,9.25
2022-10-19T10:29:28.241Z,8.95
2022-10-19T10:31:56.201Z,6.05
2022-10-19T10:37:27.873Z,7.68
2022-10-19T10:39:57.913Z,8.65
2022-10-19T10:42:42.348Z,8.63
2022-10-19T10:45:23.419Z,4.35
2022-10-19T10:47:50.668Z,6.13
2022-10-19T10:50:22.129Z,7.50
2022-10-19T10:53:00.194Z,4.55
2022-10-19T10:55:26.929Z,4.47
2022-10-19T10:57:59.394Z,5.47
2022-10-19T11:00:26.191Z,8.25
2022-10-19T11:02:55.665Z,5.78
2022-10-19T11:05:32.840Z,5.20
2022-10-19T11:08:41.747Z,3.50
2022-10-19T11:11:19.348Z,5.40
2022-10-19T11:13:48.828Z,5.68
2022-10-19T11:16:17.190Z,5.80
2022-10-19T11:19:19.479Z,5.03
2022-10-19T11:22:07.205Z,5.28
2022-10-19T11:25:02.211Z,5.70
2022-10-19T11:27:47.512Z,3.38
2022-10-19T11:30:24.666Z,5.47
2022-10-19T11:33:06.644Z,4.20
2022-10-19T11:35:55.046Z,4.50
2022-10-19T11:38:29.620Z,4.70
2022-10-19T11:41:24.129Z,4.95
2022-10-19T11:44:16.579Z,4.25
2022-10-19T11:47:17.534Z,5.78
2022-10-19T11:50:02.280Z,5.00
2022-10-19T11:52:46.398Z,4.32
2022-10-19T11:55:28.104Z,6.75
2022-10-19T11:57:57.050Z,6.20
2022-10-19T12:00:39.897Z,3.10
2022-10-19T12:03:09.790Z,4.75
2022-10-19T12:05:52.117Z,6.90
2022-10-19T12:08:49.114Z,5.93
2022-10-19T12:11:24.387Z,7.15
2022-10-19T12:13:55.984Z,3.83
2022-10-19T12:16:23.700Z,5.82
2022-10-19T12:18:58.260Z,4.85
2022-10-19T12:21:36.448Z,5.90
2022-10-19T12:24:04.935Z,4.57
2022-10-19T12:26:34.553Z,4.68
2022-10-19T12:29:03.664Z,3.95
2022-10-19T12:31:30.455Z,3.58
2022-10-19T12:34:13.203Z,3.88
2022-10-19T12:37:20.243Z,5.97
2022-10-19T12:40:01.997Z,4.78
2022-10-19T12:42:30.031Z,5.18
2022-10-19T12:45:08.781Z,5.78
2022-10-19T12:47:35.927Z,5.95
2022-10-19T12:50:03.635Z,4.82
2022-10-19T12:52:49.295Z,7.15
2022-10-19T12:55:15.962Z,4.38
2022-10-19T12:57:48.309Z,5.95
2022-10-19T13:00:25.572Z,4.32
2022-10-19T13:03:01.536Z,7.07
2022-10-19T13:05:29.464Z,5.80
2022-10-19T13:07:56.177Z,5.60
2022-10-19T13:10:26.030Z,6.05
2022-10-19T13:12:52.886Z,4.50
2022-10-19T13:15:34.693Z,4.78
2022-10-19T13:18:02.242Z,4.28
2022-10-19T13:20:29.382Z,3.72
2022-10-19T13:23:04.756Z,4.95
2022-10-19T13:25:38.112Z,6.18
2022-10-19T13:28:09.247Z,4.70
2022-10-19T13:30:38.715Z,4.90
2022-10-19T13:33:30.200Z,4.38
2022-10-19T13:36:00.048Z,4.53
2022-10-19T13:38:28.529Z,5.03
2022-10-19T13:40:55.218Z,5.50
2022-10-19T13:43:26.314Z,4.93
2022-10-19T13:46:12.720Z,4.95
2022-10-19T13:48:58.254Z,5.40
2022-10-19T13:51:32.704Z,3.88
2022-10-19T13:54:23.765Z,5.05
2022-10-19T13:57:09.231Z,4.60
2022-10-19T13:59:57.687Z,3.72
2022-10-19T14:02:45.899Z,4.60
2022-10-19T14:05:50.144Z,5.05
2022-10-19T14:08:46.772Z,4.72
2022-10-19T14:11:13.462Z,6.47
2022-10-19T14:13:40.249Z,4.18
2022-10-19T14:16:07.134Z,4.93
2022-10-19T14:18:35.253Z,6.25
2022-10-19T14:21:06.322Z,2.65
2022-10-19T14:23:38.006Z,3.95
2022-10-19T14:26:19.574Z,4.28
2022-10-19T14:28:46.284Z,8.13
2022-10-19T14:31:18.255Z,6.22
2022-10-19T14:33:50.353Z,5.43
2022-10-19T14:36:18.988Z,5.82
2022-10-19T14:38:46.447Z,5.22
2022-10-19T14:41:20.823Z,3.22
2022-10-19T14:43:47.544Z,4.10
2022-10-19T14:46:15.627Z,5.15
2022-10-19T14:48:46.834Z,5.60
2022-10-19T14:51:40.411Z,5.38
2022-10-19T14:54:09.125Z,4.85
2022-10-19T14:56:41.725Z,6.03
2022-10-19T14:59:20.287Z,5.13
2022-10-19T15:01:50.983Z,5.45
2022-10-19T15:04:21.706Z,4.45
2022-10-19T15:06:48.508Z,6.60
2022-10-19T15:09:37.425Z,4.47
2022-10-19T15:12:14.856Z,3.40
2022-10-19T15:14:41.586Z,4.10
2022-10-19T15:17:29.071Z,3.45
2022-10-19T15:19:58.395Z,4.28
2022-10-19T15:22:31.335Z,2.50
2022-10-19T15:27:50.892Z,4.43
2022-10-19T15:30:17.548Z,4.28
2022-10-19T15:32:49.372Z,3.53
2022-10-19T15:35:28.821Z,2.85
2022-10-19T15:38:05.918Z,4.05
2022-10-19T15:40:37.999Z,4.47
2022-10-19T15:43:39.167Z,4.50
2022-10-19T15:46:07.317Z,3.50
2022-10-19T15:48:50.017Z,5.45
2022-10-19T15:51:25.370Z,5.45
2022-10-19T15:53:59.265Z,4.38
2022-10-19T15:56:28.716Z,6.88
2022-10-19T15:58:56.771Z,4.93
2022-10-19T16:01:26.180Z,6.53
2022-10-19T16:03:53.703Z,3.83
2022-10-19T16:06:21.485Z,5.63
2022-10-19T16:08:48.255Z,6.30
2022-10-19T16:11:19.100Z,4.45
2022-10-19T16:13:45.900Z,5.47
2022-10-19T16:16:14.752Z,3.85
2022-10-19T16:18:41.558Z,6.30
2022-10-19T16:21:08.303Z,5.45
2022-10-19T16:23:39.444Z,4.72
2022-10-19T16:26:08.935Z,4.95
2022-10-19T16:28:35.683Z,7.10
2022-10-19T16:31:03.000Z,5.45
2022-10-19T16:33:29.689Z,4.00
2022-10-19T16:35:56.518Z,4.25
2022-10-19T16:38:23.237Z,4.50
2022-10-19T16:40:50.959Z,2.92
2022-10-19T16:43:17.682Z,4.63
2022-10-19T16:45:45.003Z,5.72
2022-10-19T16:48:14.741Z,4.15
2022-10-19T16:53:10.375Z,5.05
2022-10-19T16:55:40.573Z,3.55
2022-10-19T16:58:07.355Z,6.07
2022-10-19T17:00:34.382Z,4.85
2022-10-19T17:03:01.096Z,4.88
2022-10-19T17:05:27.728Z,6.28
2022-10-19T17:07:54.530Z,3.58
2022-10-19T17:10:21.819Z,4.32
2022-10-19T17:12:49.092Z,5.25
2022-10-19T17:15:41.534Z,4.65
2022-10-19T17:18:02.633Z,3.78
2022-10-19T17:20:29.296Z,4.28
2022-10-19T17:22:56.024Z,7.32
2022-10-19T17:25:23.197Z,5.50
2022-10-19T17:27:52.735Z,6.70
2022-10-19T17:30:20.601Z,6.28
2022-10-19T17:32:47.400Z,3.92
2022-10-19T17:35:14.096Z,4.30
2022-10-19T17:37:40.987Z,4.75
2022-10-19T17:40:08.342Z,5.18
2022-10-19T17:42:36.648Z,4.78
2022-10-19T17:45:03.454Z,4.72
2022-10-19T17:47:30.904Z,5.75
2022-10-19T17:49:57.598Z,5.47
2022-10-19T17:52:24.350Z,4.78
2022-10-19T17:55:11.244Z,4.20
2022-10-19T17:57:38.238Z,8.27
2022-10-19T18:00:07.059Z,5.53
2022-10-19T18:02:35.454Z,6.30
2022-10-19T18:05:02.955Z,6.50
2022-10-19T18:07:29.634Z,5.00
2022-10-19T18:09:56.324Z,4.57
2022-10-19T18:12:24.082Z,6.18
2022-10-19T18:14:51.246Z,5.57
2022-10-19T18:17:17.980Z,5.45
2022-10-19T18:19:44.832Z,7.38
2022-10-19T18:22:11.659Z,4.07
2022-10-19T18:24:38.544Z,9.75
2022-10-19T18:27:05.182Z,5.95
2022-10-19T18:29:32.462Z,5.55
2022-10-19T18:31:59.223Z,4.80
2022-10-19T18:34:26.287Z,5.80
2022-10-19T18:36:53.010Z,6.55
2022-10-19T18:39:19.770Z,4.20
2022-10-19T18:41:48.236Z,4.22
2022-10-19T18:44:14.962Z,7.20
2022-10-19T18:46:41.719Z,4.90
2022-10-19T18:49:09.558Z,4.20
2022-10-19T18:51:36.599Z,4.10
2022-10-19T18:54:04.439Z,7.60
2022-10-19T18:56:33.264Z,5.00
2022-10-19T18:59:00.023Z,4.68
2022-10-19T19:01:27.580Z,5.05
2022-10-19T19:03:58.851Z,6.35
2022-10-19T19:06:28.907Z,6.32
2022-10-19T19:08:59.550Z,5.65
2022-10-19T19:11:30.620Z,7.22
2022-10-19T19:14:01.508Z,3.95
2022-10-19T19:16:29.734Z,3.97
2022-10-19T19:18:56.544Z,4.82
2022-10-19T19:21:27.905Z,5.53
2022-10-19T19:23:55.231Z,3.97
2022-10-19T19:26:22.863Z,3.33
2022-10-19T19:28:51.714Z,5.15
2022-10-19T19:31:19.806Z,3.75
2022-10-19T19:33:47.024Z,4.15
2022-10-19T19:36:15.880Z,5.18
2022-10-19T19:38:43.074Z,4.18
2022-10-19T19:41:11.928Z,5.22
2022-10-19T19:43:39.473Z,5.50
2022-10-19T19:46:12.526Z,5.43
2022-10-19T19:48:40.011Z,5.20
2022-10-19T19:51:11.569Z,4.63
2022-10-19T19:53:38.478Z,4.63
2022-10-19T19:56:08.749Z,5.82
2022-10-19T19:58:35.713Z,3.70
2022-10-19T20:01:13.618Z,4.82
2022-10-19T20:03:40.821Z,4.28
2022-10-19T20:06:07.788Z,3.75
2022-10-19T20:08:36.288Z,4.57
2022-10-19T20:11:04.162Z,3.40
2022-10-19T20:13:30.926Z,4.35
2022-10-19T20:15:58.954Z,5.18
2022-10-19T20:18:25.816Z,5.72
2022-10-19T20:20:52.553Z,5.57
2022-10-19T20:23:19.254Z,4.90
2022-10-19T20:25:47.342Z,5.47
2022-10-19T20:28:14.030Z,4.70
2022-10-19T20:30:40.926Z,3.75
2022-10-19T20:33:07.789Z,3.95
2022-10-19T20:35:36.606Z,4.40
2022-10-19T20:38:04.456Z,3.25
2022-10-19T20:40:31.549Z,3.63
2022-10-19T20:42:58.947Z,3.45
2022-10-19T20:45:25.834Z,3.42
2022-10-19T20:47:52.594Z,2.72
2022-10-19T20:50:21.798Z,3.58
2022-10-19T20:52:48.865Z,3.33
2022-10-19T20:55:16.273Z,2.63
2022-10-19T20:57:43.026Z,2.88
2022-10-19T21:00:10.408Z,3.42
2022-10-19T21:02:38.166Z,2.92
2022-10-19T21:05:05.856Z,4.00
2022-10-19T21:07:32.663Z,3.88
2022-10-19T21:09:59.406Z,3.58
2022-10-19T21:12:26.070Z,4.03
2022-10-19T21:14:52.950Z,3.20
2022-10-19T21:17:20.206Z,4.30
2022-10-19T21:19:47.971Z,3.70
2022-10-19T21:22:14.748Z,4.50
2022-10-19T21:24:41.938Z,4.28
2022-10-19T21:27:09.088Z,3.03
2022-10-19T21:29:36.648Z,3.03
2022-10-19T21:32:03.723Z,3.92
2022-10-19T21:34:30.893Z,2.30
2022-10-19T21:36:57.812Z,3.35
2022-10-19T21:39:24.560Z,2.88
2022-10-19T21:41:51.388Z,2.38
2022-10-19T21:44:18.402Z,3.30
2022-10-19T21:46:47.299Z,2.55
2022-10-19T21:49:14.047Z,2.78
2022-10-19T21:51:51.095Z,2.53
2022-10-19T21:54:19.341Z,2.95
2022-10-19T21:56:46.359Z,2.60
2022-10-19T21:59:13.669Z,2.80
2022-10-19T22:01:41.617Z,2.50
2022-10-19T22:04:12.041Z,3.03
2022-10-19T22:06:38.759Z,2.65
2022-10-19T22:09:06.929Z,2.75
2022-10-19T22:11:33.791Z,1.98
2022-10-19T22:14:01.524Z,2.20
2022-10-19T22:16:28.495Z,2.30
2022-10-19T22:18:55.712Z,3.15
2022-10-19T22:21:24.606Z,2.88
2022-10-19T22:23:52.918Z,2.47
2022-10-19T22:26:21.946Z,2.63
2022-10-19T22:28:48.695Z,2.38
2022-10-19T22:31:15.839Z,2.50
2022-10-19T22:33:42.623Z,3.47
2022-10-19T22:36:10.358Z,2.28
2022-10-19T22:38:37.055Z,2.30
2022-10-19T22:42:00.588Z,2.95
2022-10-19T22:44:27.298Z,2.40
2022-10-19T22:46:53.968Z,2.35
2022-10-19T22:49:21.240Z,2.40
2022-10-19T22:51:47.935Z,3.10
2022-10-19T22:54:14.797Z,2.90
2022-10-19T22:56:41.992Z,2.78
2022-10-19T22:59:09.056Z,2.63
2022-10-19T23:01:36.189Z,3.30
2022-10-19T23:04:02.908Z,3.67
2022-10-19T23:06:29.697Z,2.50
2022-10-19T23:08:57.089Z,2.60
2022-10-19T23:11:24.275Z,2.30
2022-10-19T23:13:50.992Z,2.90
2022-10-19T23:16:17.728Z,2.80
2022-10-19T23:18:44.767Z,2.72
2022-10-19T23:21:12.674Z,3.88
2022-10-19T23:23:39.587Z,3.05
2022-10-19T23:26:07.663Z,3.20
2022-10-19T23:28:35.330Z,3.42
2022-10-19T23:31:09.763Z,3.33
2022-10-19T23:33:36.848Z,3.28
2022-10-19T23:36:12.202Z,4.03
2022-10-19T23:38:39.006Z,3.35
2022-10-19T23:41:05.958Z,3.35
2022-10-19T23:43:32.967Z,3.03
2022-10-19T23:45:59.869Z,2.65
2022-10-19T23:48:27.936Z,2.58
2022-10-19T23:51:03.607Z,3.28
2022-10-19T23:53:31.065Z,2.33
2022-10-19T23:56:14.426Z,3.40
2022-10-19T23:58:42.124Z,2.72
